createdAt,value
2022-11-20T00:00:47.213Z,100341.47
2022-11-20T00:03:51.524Z,100336.75
2022-11-20T00:06:54.631Z,100343.31
2022-11-20T00:09:58.106Z,100322.97
2022-11-20T00:13:01.230Z,100315.44
2022-11-20T00:16:05.986Z,100324.59
2022-11-20T00:19:08.526Z,100325.31
2022-11-20T00:22:11.635Z,100322.00
2022-11-20T00:25:14.794Z,100326.78
2022-11-20T00:28:17.266Z,100335.69
2022-11-20T00:31:20.435Z,100337.22
2022-11-20T00:34:23.675Z,100327.19
2022-11-20T00:37:27.226Z,100333.91
2022-11-20T00:40:29.757Z,100347.22
2022-11-20T00:43:33.319Z,100366.16
2022-11-20T00:46:36.762Z,100362.59
2022-11-20T00:49:40.227Z,100347.75
2022-11-20T00:52:42.732Z,100333.16
2022-11-20T00:56:04.269Z,100337.69
2022-11-20T00:59:09.787Z,100330.97
2022-11-20T01:02:13.157Z,100337.56
2022-11-20T01:05:16.754Z,100337.56
2022-11-20T01:08:19.202Z,100338.63
2022-11-20T01:11:33.895Z,100336.03
2022-11-20T01:14:37.333Z,100335.28
2022-11-20T01:17:39.917Z,100334.47
2022-11-20T01:20:43.207Z,100335.94
2022-11-20T01:23:46.790Z,100339.09
2022-11-20T01:26:51.578Z,100346.56
2022-11-20T01:29:59.781Z,100346.56
2022-11-20T01:33:04.258Z,100329.38
2022-11-20T01:36:08.099Z,100332.06
2022-11-20T01:39:25.725Z,100323.31
2022-11-20T01:42:47.100Z,100310.81
2022-11-20T01:46:16.464Z,100315.84
2022-11-20T01:49:25.795Z,100310.25
2022-11-20T01:52:46.277Z,100313.84
2022-11-20T01:55:54.475Z,100299.75
2022-11-20T01:59:02.040Z,100305.47
2022-11-20T02:02:05.370Z,100301.06
2022-11-20T02:05:19.389Z,100294.41
2022-11-20T02:08:24.295Z,100291.25
2022-11-20T02:11:26.912Z,100300.94
2022-11-20T02:14:30.627Z,100307.34
2022-11-20T02:17:33.083Z,100306.06
2022-11-20T02:20:35.907Z,100300.56
2022-11-20T02:23:45.052Z,100292.63
2022-11-20T02:26:53.845Z,100310.56
2022-11-20T02:30:03.644Z,100306.59
2022-11-20T02:33:06.134Z,100304.78
2022-11-20T02:36:15.323Z,100291.00
2022-11-20T02:39:18.220Z,100280.56
2022-11-20T02:42:21.830Z,100289.16
2022-11-20T02:45:25.805Z,100289.16
2022-11-20T02:48:32.700Z,100287.03
2022-11-20T02:51:36.360Z,100279.66
2022-11-20T02:54:38.890Z,100285.41
2022-11-20T02:57:42.362Z,100284.28
2022-11-20T03:00:45.869Z,100283.63
2022-11-20T03:03:49.679Z,100269.34
2022-11-20T03:06:52.873Z,100261.47
2022-11-20T03:09:55.523Z,100269.91
2022-11-20T03:12:58.053Z,100268.31
2022-11-20T03:16:07.266Z,100270.66
2022-11-20T03:19:09.908Z,100259.63
2022-11-20T03:22:13.387Z,100264.81
2022-11-20T03:25:17.048Z,100281.53
2022-11-20T03:28:19.602Z,100287.50
2022-11-20T03:31:28.785Z,100300.81
2022-11-20T03:34:31.874Z,100299.75
2022-11-20T03:37:34.960Z,100290.25
2022-11-20T03:40:38.463Z,100281.03
2022-11-20T03:43:42.035Z,100267.09
2022-11-20T03:46:45.329Z,100266.50
2022-11-20T03:49:48.457Z,100269.69
2022-11-20T03:52:50.979Z,100271.13
2022-11-20T03:55:56.538Z,100266.94
2022-11-20T03:58:59.940Z,100263.03
2022-11-20T04:02:02.495Z,100266.09
2022-11-20T04:05:06.369Z,100273.81
2022-11-20T04:08:09.452Z,100268.88
2022-11-20T04:11:19.418Z,100268.56
2022-11-20T04:14:21.959Z,100263.03
2022-11-20T04:17:24.495Z,100260.59
2022-11-20T04:20:28.006Z,100251.94
2022-11-20T04:23:31.601Z,100256.56
2022-11-20T04:26:34.785Z,100241.69
2022-11-20T04:29:37.338Z,100238.31
2022-11-20T04:32:39.823Z,100235.47
2022-11-20T04:35:43.815Z,100230.84
2022-11-20T04:38:51.370Z,100236.75
2022-11-20T04:42:15.907Z,100234.41
2022-11-20T04:45:18.396Z,100236.03
2022-11-20T04:48:21.960Z,100245.19
2022-11-20T04:51:25.049Z,100230.81
2022-11-20T04:54:31.809Z,100208.94
2022-11-20T04:57:34.953Z,100205.44
2022-11-20T05:00:38.077Z,100204.94
2022-11-20T05:03:42.913Z,100209.16
2022-11-20T05:06:46.609Z,100212.19
2022-11-20T05:09:49.051Z,100204.47
2022-11-20T05:12:51.565Z,100224.44
2022-11-20T05:15:54.217Z,100233.28
2022-11-20T05:18:57.152Z,100213.56
2022-11-20T05:21:59.665Z,100212.56
2022-11-20T05:25:02.115Z,100214.13
2022-11-20T05:28:04.678Z,100195.56
2022-11-20T05:31:25.011Z,100183.50
2022-11-20T05:34:28.533Z,100184.69
2022-11-20T05:37:31.117Z,100174.34
2022-11-20T05:40:33.760Z,100174.16
2022-11-20T05:43:37.517Z,100187.28
2022-11-20T05:46:40.558Z,100185.50
2022-11-20T05:49:43.207Z,100194.56
2022-11-20T05:52:45.889Z,100198.38
2022-11-20T05:55:57.530Z,100194.63
2022-11-20T05:59:00.556Z,100211.00
2022-11-20T06:02:04.103Z,100220.25
2022-11-20T06:05:08.064Z,100217.84
2022-11-20T06:08:10.616Z,100220.81
2022-11-20T06:11:15.509Z,100221.72
2022-11-20T06:14:18.011Z,100228.13
2022-11-20T06:17:21.055Z,100219.16
2022-11-20T06:20:25.617Z,100213.25
2022-11-20T06:23:30.013Z,100204.28
2022-11-20T06:26:33.128Z,100201.84
2022-11-20T06:29:35.868Z,100204.22
2022-11-20T06:32:38.508Z,100225.25
2022-11-20T06:35:41.574Z,100236.03
2022-11-20T06:38:45.382Z,100237.00
2022-11-20T06:41:47.920Z,100239.66
2022-11-20T06:44:50.387Z,100252.88
2022-11-20T06:47:53.980Z,100253.19
2022-11-20T06:50:58.173Z,100255.63
2022-11-20T06:54:02.036Z,100249.53
2022-11-20T06:57:04.721Z,100247.09
2022-11-20T07:00:08.682Z,100245.94
2022-11-20T07:03:16.269Z,100243.81
2022-11-20T07:06:18.800Z,100237.91
2022-11-20T07:09:22.388Z,100232.31
2022-11-20T07:12:25.045Z,100239.66
2022-11-20T07:15:28.034Z,100240.09
2022-11-20T07:18:30.563Z,100247.75
2022-11-20T07:21:33.056Z,100257.34
2022-11-20T07:24:36.198Z,100261.69
2022-11-20T07:27:38.724Z,100266.78
2022-11-20T07:30:42.220Z,100266.00
2022-11-20T07:33:44.698Z,100265.94
2022-11-20T07:36:47.672Z,100269.31
2022-11-20T07:39:51.177Z,100265.91
2022-11-20T07:42:55.418Z,100267.50
2022-11-20T07:45:59.925Z,100262.22
2022-11-20T07:49:02.589Z,100263.88
2022-11-20T07:52:05.550Z,100264.88
2022-11-20T07:55:09.033Z,100265.25
2022-11-20T07:58:11.547Z,100264.88
2022-11-20T08:01:14.150Z,100273.59
2022-11-20T08:04:17.324Z,100269.38
2022-11-20T08:07:19.919Z,100256.34
2022-11-20T08:10:22.525Z,100244.09
2022-11-20T08:13:43.188Z,100242.03
2022-11-20T08:16:47.771Z,100243.66
2022-11-20T08:19:51.258Z,100251.28
2022-11-20T08:22:58.871Z,100252.03
2022-11-20T08:26:01.338Z,100252.16
2022-11-20T08:29:05.612Z,100252.00
2022-11-20T08:32:09.295Z,100238.16
2022-11-20T08:35:11.851Z,100241.69
2022-11-20T08:38:14.284Z,100244.75
2022-11-20T08:41:29.519Z,100255.03
2022-11-20T08:44:32.752Z,100262.69
2022-11-20T08:47:35.264Z,100258.78
2022-11-20T08:50:38.276Z,100264.63
2022-11-20T08:53:41.377Z,100258.47
2022-11-20T08:56:44.766Z,100260.09
2022-11-20T09:03:09.889Z,100269.97
2022-11-20T09:06:13.055Z,100266.69
2022-11-20T09:09:16.342Z,100274.13
2022-11-20T09:12:18.816Z,100282.38
2022-11-20T09:15:21.726Z,100281.78
2022-11-20T09:18:25.946Z,100291.41
2022-11-20T09:21:28.502Z,100291.59
2022-11-20T09:24:31.055Z,100296.72
2022-11-20T09:27:34.278Z,100295.16
2022-11-20T09:30:36.980Z,100286.94
2022-11-20T09:33:40.377Z,100287.84
2022-11-20T09:36:42.770Z,100270.72
2022-11-20T09:39:45.233Z,100267.34
2022-11-20T09:43:10.073Z,100266.03
2022-11-20T09:46:22.189Z,100260.78
2022-11-20T09:49:44.957Z,100268.75
2022-11-20T09:53:16.078Z,100257.53
2022-11-20T09:56:22.838Z,100262.13
2022-11-20T09:59:37.469Z,100257.56
2022-11-20T10:03:02.392Z,100253.81
2022-11-20T10:06:09.615Z,100243.81
2022-11-20T10:09:12.815Z,100244.28
2022-11-20T10:12:34.703Z,100243.63
2022-11-20T10:15:42.901Z,100238.03
2022-11-20T10:18:54.464Z,100221.41
2022-11-20T10:21:57.851Z,100222.81
2022-11-20T10:25:03.244Z,100210.22
2022-11-20T10:28:36.853Z,100197.84
2022-11-20T10:31:43.244Z,100203.72
2022-11-20T10:35:02.396Z,100201.09
2022-11-20T10:38:13.920Z,100209.41
2022-11-20T10:41:28.655Z,100201.34
2022-11-20T10:44:56.749Z,100201.13
2022-11-20T10:48:13.929Z,100206.53
2022-11-20T10:51:31.531Z,100197.91
2022-11-20T10:54:46.855Z,100201.13
2022-11-20T10:58:10.224Z,100208.13
2022-11-20T11:01:18.551Z,100210.03
2022-11-20T11:04:45.410Z,100214.88
2022-11-20T11:07:55.278Z,100212.72
2022-11-20T11:11:02.682Z,100224.56
2022-11-20T11:14:11.908Z,100240.97
2022-11-20T11:17:29.767Z,100228.06
2022-11-20T11:20:52.091Z,100234.78
2022-11-20T11:24:26.854Z,100225.09
2022-11-20T11:27:28.658Z,100218.63
2022-11-20T11:30:44.207Z,100237.19
2022-11-20T11:33:47.498Z,100239.88
2022-11-20T11:36:58.214Z,100226.16
2022-11-20T11:40:22.812Z,100220.25
2022-11-20T11:43:49.747Z,100217.53
2022-11-20T11:46:57.292Z,100208.09
2022-11-20T11:50:09.308Z,100209.47
2022-11-20T11:53:18.769Z,100203.28
2022-11-20T11:56:22.414Z,100197.91
2022-11-20T11:59:35.393Z,100189.78
2022-11-20T12:02:49.425Z,100185.47
2022-11-20T12:06:00.559Z,100180.66
2022-11-20T12:09:07.299Z,100187.09
2022-11-20T12:12:18.203Z,100188.50
2022-11-20T12:15:29.876Z,100198.19
2022-11-20T12:18:32.944Z,100208.41
2022-11-20T12:21:53.655Z,100205.72
2022-11-20T12:25:15.639Z,100194.94
2022-11-20T12:28:26.989Z,100190.88
2022-11-20T12:31:41.672Z,100180.69
2022-11-20T12:34:54.128Z,100183.91
2022-11-20T12:38:29.763Z,100172.06
2022-11-20T12:42:05.909Z,100181.97
2022-11-20T12:45:53.497Z,100178.28
2022-11-20T12:49:06.383Z,100180.41
2022-11-20T12:52:27.344Z,100189.31
2022-11-20T12:55:34.713Z,100193.56
2022-11-20T12:59:01.804Z,100191.47
2022-11-20T13:02:23.426Z,100194.94
2022-11-20T13:05:38.856Z,100196.03
2022-11-20T13:08:48.545Z,100195.47
2022-11-20T13:12:07.545Z,100192.78
2022-11-20T13:15:31.106Z,100196.56
2022-11-20T13:18:40.566Z,100207.88
2022-11-20T13:21:47.374Z,100207.31
2022-11-20T13:24:52.867Z,100197.91
2022-11-20T13:27:58.455Z,100192.75
2022-11-20T13:31:01.160Z,100188.19
2022-11-20T13:34:07.382Z,100186.88
2022-11-20T13:37:27.684Z,100182.56
2022-11-20T13:40:30.272Z,100183.38
2022-11-20T13:43:36.479Z,100171.53
2022-11-20T13:46:45.602Z,100156.47
2022-11-20T13:49:49.684Z,100159.94
2022-11-20T13:53:24.482Z,100158.31
2022-11-20T13:56:54.048Z,100161.31
2022-11-20T14:00:24.304Z,100153.78
2022-11-20T14:04:04.642Z,100158.88
2022-11-20T14:06:55.477Z,100152.97
2022-11-20T14:09:58.939Z,100154.06
2022-11-20T14:13:12.017Z,100149.44
2022-11-20T14:16:21.580Z,100143.25
2022-11-20T14:19:31.437Z,100153.50
2022-11-20T14:22:34.028Z,100153.72
2022-11-20T14:25:36.695Z,100149.16
2022-11-20T14:28:41.103Z,100151.84
2022-11-20T14:31:47.880Z,100159.94
2022-11-20T14:34:55.608Z,100166.09
2022-11-20T14:37:59.441Z,100170.41
2022-11-20T14:41:10.009Z,100176.06
2022-11-20T14:44:13.300Z,100182.25
2022-11-20T14:47:20.311Z,100183.56
2022-11-20T14:50:29.796Z,100184.09
2022-11-20T14:53:32.629Z,100181.13
2022-11-20T14:56:35.818Z,100181.66
2022-11-20T14:59:38.302Z,100185.44
2022-11-20T15:02:46.094Z,100188.88
2022-11-20T15:05:50.871Z,100188.06
2022-11-20T15:08:56.824Z,100191.53
2022-11-20T15:12:02.703Z,100194.25
2022-11-20T15:15:07.133Z,100195.84
2022-11-20T15:18:19.548Z,100189.66
2022-11-20T15:21:22.658Z,100195.84
2022-11-20T15:24:25.476Z,100187.97
2022-11-20T15:27:29.133Z,100192.28
2022-11-20T15:30:32.988Z,100191.75
2022-11-20T15:33:35.540Z,100197.09
2022-11-20T15:36:39.452Z,100192.81
2022-11-20T15:39:42.795Z,100203.81
2022-11-20T15:43:06.768Z,100208.38
2022-11-20T15:46:14.016Z,100209.19
2022-11-20T15:49:19.669Z,100207.03
2022-11-20T15:52:23.126Z,100211.03
2022-11-20T15:55:27.288Z,100208.59
2022-11-20T15:58:30.399Z,100205.59
2022-11-20T16:01:33.082Z,100192.72
2022-11-20T16:04:35.680Z,100195.13
2022-11-20T16:07:38.253Z,100205.88
2022-11-20T16:10:41.565Z,100199.69
2022-11-20T16:14:03.370Z,100199.41
2022-11-20T16:17:05.995Z,100201.00
2022-11-20T16:20:15.177Z,100195.91
2022-11-20T16:23:19.166Z,100205.34
2022-11-20T16:26:22.470Z,100191.63
2022-11-20T16:29:25.000Z,100187.34
2022-11-20T16:32:28.373Z,100198.16
2022-11-20T16:35:32.082Z,100189.47
2022-11-20T16:38:35.388Z,100196.72
2022-11-20T16:41:38.318Z,100195.41
2022-11-20T16:44:40.847Z,100188.66
2022-11-20T16:47:43.391Z,100192.44
2022-11-20T16:50:51.845Z,100180.31
2022-11-20T16:53:55.988Z,100185.97
2022-11-20T16:56:59.356Z,100188.38
2022-11-20T17:00:04.015Z,100181.31
2022-11-20T17:03:07.775Z,100173.25
2022-11-20T17:06:17.523Z,100174.56
2022-11-20T17:09:20.993Z,100171.88
2022-11-20T17:12:23.467Z,100166.75
2022-11-20T17:15:26.937Z,100161.84
2022-11-20T17:18:29.937Z,100156.19
2022-11-20T17:21:33.685Z,100156.47
2022-11-20T17:24:37.059Z,100150.03
2022-11-20T17:27:40.498Z,100141.97
2022-11-20T17:30:43.890Z,100148.09
2022-11-20T17:33:46.976Z,100143.25
2022-11-20T17:36:50.454Z,100148.38
2022-11-20T17:39:53.055Z,100151.84
2022-11-20T17:42:56.493Z,100151.34
2022-11-20T17:46:00.009Z,100137.41
2022-11-20T17:49:03.903Z,100128.81
2022-11-20T17:52:06.982Z,100126.38
2022-11-20T17:55:10.474Z,100118.28
2022-11-20T17:58:13.516Z,100135.91
2022-11-20T18:01:17.704Z,100136.97
2022-11-20T18:04:21.321Z,100135.09
2022-11-20T18:07:25.112Z,100128.38
2022-11-20T18:10:30.430Z,100136.13
2022-11-20T18:13:52.923Z,100139.34
2022-11-20T18:16:58.090Z,100148.59
2022-11-20T18:20:27.235Z,100160.13
2022-11-20T18:23:24.006Z,100167.34
2022-11-20T18:26:27.562Z,100162.72
2022-11-20T18:29:31.254Z,100165.09
2022-11-20T18:32:37.015Z,100172.84
2022-11-20T18:35:42.985Z,100179.50
2022-11-20T18:38:49.419Z,100181.97
2022-11-20T18:42:11.632Z,100188.34
2022-11-20T18:45:14.122Z,100191.88
2022-11-20T18:48:17.616Z,100195.53
2022-11-20T18:51:21.098Z,100207.38
2022-11-20T18:54:24.055Z,100206.53
2022-11-20T18:57:29.384Z,100204.84
2022-11-20T19:00:32.547Z,100201.31
2022-11-20T19:03:35.155Z,100194.72
2022-11-20T19:06:39.631Z,100201.03
2022-11-20T19:09:44.974Z,100203.06
2022-11-20T19:12:48.096Z,100198.47
2022-11-20T19:15:50.653Z,100193.94
2022-11-20T19:18:53.429Z,100201.28
2022-11-20T19:21:58.970Z,100205.34
2022-11-20T19:25:02.078Z,100204.84
2022-11-20T19:28:05.690Z,100209.13
2022-11-20T19:31:12.333Z,100214.44
2022-11-20T19:34:15.253Z,100208.22
2022-11-20T19:37:17.737Z,100196.94
2022-11-20T19:40:21.147Z,100188.69
2022-11-20T19:43:23.803Z,100169.94
2022-11-20T19:46:27.403Z,100174.63
2022-11-20T19:49:30.646Z,100177.69
2022-11-20T19:52:34.090Z,100180.13
2022-11-20T19:55:37.634Z,100184.78
2022-11-20T19:58:41.170Z,100176.75
2022-11-20T20:01:43.811Z,100171.53
2022-11-20T20:04:47.019Z,100182.16
2022-11-20T20:07:49.837Z,100178.53
2022-11-20T20:10:56.749Z,100169.91
2022-11-20T20:14:14.550Z,100165.34
2022-11-20T20:17:17.131Z,100156.31
2022-11-20T20:20:21.322Z,100143.44
2022-11-20T20:23:24.027Z,100140.25
2022-11-20T20:26:29.613Z,100133.78
2022-11-20T20:29:32.711Z,100141.00
2022-11-20T20:32:36.250Z,100145.00
2022-11-20T20:35:43.390Z,100151.31
2022-11-20T20:38:46.639Z,100128.47
2022-11-20T20:41:51.549Z,100142.09
2022-11-20T20:45:06.376Z,100143.16
2022-11-20T20:48:08.843Z,100155.78
2022-11-20T20:51:11.347Z,100143.97
2022-11-20T20:54:13.834Z,100140.00
2022-11-20T20:57:17.363Z,100146.97
2022-11-20T21:00:19.942Z,100159.59
2022-11-20T21:03:22.466Z,100156.41
2022-11-20T21:06:25.915Z,100135.09
2022-11-20T21:09:28.475Z,100136.97
2022-11-20T21:12:30.869Z,100134.03
2022-11-20T21:15:33.367Z,100148.03
2022-11-20T21:18:36.880Z,100155.31
2022-11-20T21:21:58.575Z,100157.75
2022-11-20T21:25:01.027Z,100148.28
2022-11-20T21:28:04.262Z,100138.88
2022-11-20T21:31:13.284Z,100140.25
2022-11-20T21:34:19.254Z,100149.41
2022-11-20T21:37:21.800Z,100147.28
2022-11-20T21:40:24.756Z,100148.09
2022-11-20T21:43:28.396Z,100151.03
2022-11-20T21:46:32.063Z,100153.44
2022-11-20T21:49:35.272Z,100159.00
2022-11-20T21:52:37.869Z,100162.78
2022-11-20T21:55:40.314Z,100144.03
2022-11-20T21:58:44.695Z,100137.84
2022-11-20T22:01:47.870Z,100151.16
2022-11-20T22:04:51.344Z,100147.28
2022-11-20T22:07:56.814Z,100145.41
2022-11-20T22:11:02.119Z,100152.25
2022-11-20T22:14:23.327Z,100146.66
2022-11-20T22:17:45.678Z,100141.84
2022-11-20T22:20:48.797Z,100141.34
2022-11-20T22:23:52.762Z,100143.47
2022-11-20T22:26:55.924Z,100130.78
2022-11-20T22:29:58.402Z,100123.28
2022-11-20T22:33:00.847Z,100122.47
2022-11-20T22:36:17.861Z,100114.75
2022-11-20T22:39:23.181Z,100093.84
2022-11-20T22:42:35.013Z,100103.31
2022-11-20T22:45:38.482Z,100104.81
2022-11-20T22:48:43.296Z,100099.69
2022-11-20T22:51:46.901Z,100092.72
2022-11-20T22:54:49.481Z,100091.19
2022-11-20T22:57:51.875Z,100091.63
2022-11-20T23:00:54.530Z,100093.53
2022-11-20T23:03:59.635Z,100090.56
2022-11-20T23:07:02.211Z,100090.06
2022-11-20T23:10:06.634Z,100081.88
2022-11-20T23:13:09.132Z,100086.34
2022-11-20T23:16:16.818Z,100074.53
2022-11-20T23:19:20.410Z,100071.38
2022-11-20T23:22:22.946Z,100065.78
2022-11-20T23:25:25.464Z,100070.38
2022-11-20T23:28:29.380Z,100071.00
2022-11-20T23:31:34.145Z,100069.19
2022-11-20T23:34:37.421Z,100077.56
2022-11-20T23:37:41.429Z,100080.56
2022-11-20T23:40:48.543Z,100072.63
2022-11-20T23:43:53.408Z,100080.72
2022-11-20T23:46:56.432Z,100079.94
2022-11-20T23:49:59.901Z,100074.78
2022-11-20T23:53:02.391Z,100068.06
2022-11-20T23:56:05.898Z,100073.09
2022-11-20T23:59:08.422Z,100066.72
